Mama, Russia
Current Conditions -  °F | °C
As of 11:00 AM on Friday 28 Nov 2014 (Local Time) from UIAA Reporting Station
Broken Clouds Broken Clouds  
Wind Chill: -4°   Ceiling: 10000
Heat Index:   Visibility: 6mi
Dew Point: -4°   Wind: 4mph
Humidity: 66%   Direction: 50°NE
Pressure: 29.77"   Gusts: NA
Location:  58.31°N, 112.9°E
Report Text: UIAA 280300Z 05002MPS 9999 BKN100 M15/M20 Q1008 NOSIG RMKQFE698 29490150
Loading
Personal Weather Stations






























Interactive Weather Map New forecast layout! Learn more

10-Day Weather Forecast

Advertisements
Track Severe Weather on mobile